Time;durP1;ratioP1;P1;durP2;ratioP2;P2;SDS_P1;SDS_P2;PMS_P1;PMS_P2;Temp;Humidity;BMP_temperature;BMP_pressure;BME280_temperature;BME280_humidity;BME280_pressure;Samples;Min_cycle;Max_cycle;Signal;HPM_P1;HPM_P2
2022/05/12 00:00:53;;;;;;;6.00;2.87;;;;;;;22.82;50.57;100099.78;5033386;28;20188;-62
2022/05/12 00:03:18;;;;;;;7.97;3.27;;;;;;;22.83;51.16;100098.53;5033322;28;20561;-62
2022/05/12 00:05:44;;;;;;;5.20;2.80;;;;;;;22.82;51.08;100111.28;5032687;28;20188;-62
2022/05/12 00:08:10;;;;;;;4.77;3.27;;;;;;;22.82;50.96;100102.66;5033807;28;20172;-62
2022/05/12 00:10:36;;;;;;;5.03;2.83;;;;;;;22.82;51.33;100105.53;5033692;28;20455;-62
2022/05/12 00:13:01;;;;;;;5.33;2.90;;;;;;;22.81;51.25;100112.53;5033785;28;20279;-62
2022/05/12 00:15:28;;;;;;;11.90;3.13;;;;;;;22.81;51.37;100106.75;5033602;28;20277;-62
2022/05/12 00:17:53;;;;;;;5.57;2.70;;;;;;;22.80;50.97;100110.88;5032624;28;20192;-62
2022/05/12 00:20:21;;;;;;;4.10;2.43;;;;;;;22.80;51.34;100113.75;5032515;28;21092;-62
2022/05/12 00:22:46;;;;;;;4.10;2.70;;;;;;;22.81;51.32;100115.41;5031900;28;20589;-62
2022/05/12 00:25:21;;;;;;;4.40;2.47;;;;;;;22.82;51.44;100124.88;5031773;28;20469;-62
2022/05/12 00:27:46;;;;;;;4.80;2.80;;;;;;;22.81;51.60;100131.84;5031103;28;20219;-62
2022/05/12 00:30:12;;;;;;;5.57;2.87;;;;;;;22.80;51.62;100139.66;5030660;28;20502;-62
2022/05/12 00:32:38;;;;;;;4.03;2.43;;;;;;;22.80;51.32;100130.19;5031476;28;20187;-62
2022/05/12 00:35:05;;;;;;;3.67;2.57;;;;;;;22.80;51.36;100145.44;5031657;28;20241;-62
2022/05/12 00:37:30;;;;;;;3.57;2.60;;;;;;;22.79;51.57;100146.66;5032632;28;20434;-62
2022/05/12 00:39:56;;;;;;;5.13;2.63;;;;;;;22.79;51.47;100151.59;5032164;28;20868;-62
2022/05/12 00:42:22;;;;;;;3.40;2.50;;;;;;;22.78;51.89;100150.75;5032896;28;20177;-62
2022/05/12 00:44:51;;;;;;;3.40;2.60;;;;;;;22.79;51.50;100151.59;5033227;28;20168;-62
2022/05/12 00:47:16;;;;;;;4.30;3.10;;;;;;;22.79;51.76;100151.59;5033149;28;20534;-62
2022/05/12 00:49:41;;;;;;;5.57;3.17;;;;;;;22.79;51.75;100158.19;5033196;28;20481;-62
2022/05/12 00:52:15;;;;;;;5.93;3.10;;;;;;;22.79;51.86;100152.44;5032994;28;20169;-62
2022/05/12 00:54:45;;;;;;;5.37;3.27;;;;;;;22.79;52.08;100155.31;5015369;28;20211;-62
2022/05/12 00:57:12;;;;;;;5.00;3.00;;;;;;;22.79;52.09;100163.94;5014902;28;20427;-62
2022/05/12 00:59:37;;;;;;;6.77;3.27;;;;;;;22.78;52.25;100161.47;4998780;28;20498;-62
2022/05/12 01:02:04;;;;;;;3.53;2.20;;;;;;;22.77;52.04;100166.41;5032844;28;20781;-62
2022/05/12 01:04:31;;;;;;;5.43;3.10;;;;;;;22.77;52.18;100171.34;4998698;28;20305;-62
2022/05/12 01:06:56;;;;;;;4.43;3.00;;;;;;;22.78;51.86;100170.91;5012824;28;20791;-62
2022/05/12 01:09:22;;;;;;;5.33;3.00;;;;;;;22.77;52.06;100166.41;5032621;28;20415;-62
2022/05/12 01:11:48;;;;;;;16.87;3.00;;;;;;;22.76;52.32;100176.28;5032618;28;20199;-62
2022/05/12 01:14:14;;;;;;;3.93;2.80;;;;;;;22.74;51.77;100175.88;5032665;28;20506;-62
2022/05/12 01:16:46;;;;;;;6.40;3.47;;;;;;;22.75;51.97;100171.75;5032518;28;20181;-62
2022/05/12 01:19:15;;;;;;;4.60;2.60;;;;;;;22.75;52.17;100176.69;5032593;28;20560;-62
2022/05/12 01:21:40;;;;;;;5.07;3.47;;;;;;;22.73;51.79;100176.28;5032577;28;20419;-62
2022/05/12 01:24:06;;;;;;;5.93;3.00;;;;;;;22.73;52.37;100188.59;5031869;28;20426;-62
2022/05/12 01:26:33;;;;;;;5.43;2.60;;;;;;;22.73;51.26;100187.78;5032274;28;20191;-62
2022/05/12 01:28:59;;;;;;;7.30;2.93;;;;;;;22.72;51.62;100192.72;5031801;28;20545;-62
2022/05/12 01:31:24;;;;;;;11.17;2.90;;;;;;;22.72;51.46;100195.59;5013529;28;20465;-62
2022/05/12 01:33:51;;;;;;;4.80;2.77;;;;;;;22.72;51.53;100191.91;5031567;28;20179;-62
2022/05/12 01:36:18;;;;;;;5.97;2.93;;;;;;;22.72;51.91;100204.22;4996277;28;20244;-62
2022/05/12 01:38:43;;;;;;;8.67;3.07;;;;;;;22.71;51.51;100208.34;5030048;28;20455;-62
2022/05/12 01:41:09;;;;;;;5.67;3.20;;;;;;;22.71;51.63;100208.34;5030568;28;20921;-62
2022/05/12 01:43:34;;;;;;;4.20;2.30;;;;;;;22.70;50.97;100209.59;5030243;28;20208;-62
2022/05/12 01:46:00;;;;;;;5.13;3.20;;;;;;;22.70;51.29;100211.63;5030104;28;20173;-62
2022/05/12 01:48:25;;;;;;;5.27;3.07;;;;;;;22.70;51.23;100218.22;5012044;28;20180;-62
2022/05/12 01:50:52;;;;;;;4.23;3.20;;;;;;;22.69;51.57;100230.13;5032164;28;20635;-62
2022/05/12 01:53:17;;;;;;;5.43;2.47;;;;;;;22.68;51.35;100223.56;5014029;28;20535;-62
2022/05/12 01:55:43;;;;;;;8.63;2.87;;;;;;;22.68;51.29;100220.66;5031594;28;20494;-62
2022/05/12 01:58:08;;;;;;;5.07;2.40;;;;;;;22.67;50.91;100230.53;5031695;28;20193;-62
2022/05/12 02:00:34;;;;;;;7.93;2.93;;;;;;;22.68;50.82;100235.06;5031945;28;20620;-62
2022/05/12 02:03:02;;;;;;;3.90;2.40;;;;;;;22.69;50.95;100235.91;5013260;28;20173;-62
2022/05/12 02:05:32;;;;;;;8.83;2.80;;;;;;;22.68;51.28;100232.19;5014221;28;20703;-62
2022/05/12 02:07:57;;;;;;;4.30;2.73;;;;;;;22.67;50.75;100233.41;5031444;28;20415;-62
2022/05/12 02:10:25;;;;;;;5.27;2.60;;;;;;;22.67;50.72;100239.19;5031703;28;20510;-62
2022/05/12 02:12:51;;;;;;;4.53;2.50;;;;;;;22.67;50.99;100242.06;5031335;28;20176;-62
2022/05/12 02:15:16;;;;;;;4.50;2.37;;;;;;;22.67;50.87;100247.81;5031594;28;20415;-62
2022/05/12 02:17:41;;;;;;;4.77;2.07;;;;;;;22.67;50.56;100244.94;5013650;28;20187;-62
2022/05/12 02:20:07;;;;;;;5.30;3.00;;;;;;;22.66;50.96;100249.06;5031315;28;20204;-62
2022/05/12 02:22:33;;;;;;;3.70;2.30;;;;;;;22.67;51.13;100258.53;5031342;28;20184;-62
2022/05/12 02:24:58;;;;;;;3.00;2.50;;;;;;;22.67;51.33;100256.44;5013696;28;20415;-62
2022/05/12 02:27:24;;;;;;;5.20;2.70;;;;;;;22.67;51.20;100264.28;5031270;28;20238;-62
2022/05/12 02:29:49;;;;;;;4.70;2.80;;;;;;;22.65;51.21;100267.56;5031179;28;20224;-62
2022/05/12 02:32:15;;;;;;;5.70;2.33;;;;;;;22.65;51.07;100273.31;5031156;28;20520;-62
2022/05/12 02:34:41;;;;;;;5.20;2.60;;;;;;;22.65;50.75;100272.47;5031381;28;20176;-62
2022/05/12 02:37:08;;;;;;;4.00;2.40;;;;;;;22.65;51.30;100275.34;5030938;28;20233;-62
2022/05/12 02:39:38;;;;;;;6.37;2.80;;;;;;;22.64;51.58;100276.59;5031166;28;20655;-62
2022/05/12 02:42:04;;;;;;;6.87;2.43;;;;;;;22.62;51.24;100288.50;5030780;28;20403;-62
2022/05/12 02:44:30;;;;;;;5.80;2.00;;;;;;;22.63;51.09;100301.66;5031189;28;20419;-62
2022/05/12 02:46:55;;;;;;;4.37;2.33;;;;;;;22.63;50.95;100295.91;5030776;28;20933;-62
2022/05/12 02:49:21;;;;;;;7.00;2.47;;;;;;;22.62;51.03;100291.38;5030682;28;20199;-62
2022/05/12 02:51:47;;;;;;;3.33;2.30;;;;;;;22.61;51.15;100301.25;5031012;28;20176;-62
2022/05/12 02:54:13;;;;;;;4.57;2.30;;;;;;;22.62;51.56;100305.78;5013406;28;20176;-62
2022/05/12 02:56:39;;;;;;;7.23;2.30;;;;;;;22.61;51.33;100312.78;5030500;28;20902;-62
2022/05/12 02:59:05;;;;;;;5.60;2.20;;;;;;;22.61;50.93;100307.03;5029800;28;20509;-62
2022/05/12 03:01:31;;;;;;;5.10;2.23;;;;;;;22.62;51.29;100310.72;5012088;28;20639;-62
2022/05/12 03:03:56;;;;;;;3.53;2.10;;;;;;;22.61;51.63;100307.03;5029606;28;20450;-62
2022/05/12 03:06:22;;;;;;;3.23;2.10;;;;;;;22.61;51.17;100314.81;5030826;28;20230;-62
2022/05/12 03:08:47;;;;;;;3.60;2.40;;;;;;;22.61;51.63;100324.28;5030412;28;20172;-62
2022/05/12 03:11:12;;;;;;;5.70;2.10;;;;;;;22.61;51.65;100320.56;5030145;28;20222;-62
2022/05/12 03:13:38;;;;;;;3.13;1.97;;;;;;;22.61;51.13;100317.69;5030691;28;20168;-62
2022/05/12 03:16:03;;;;;;;4.40;2.40;;;;;;;22.61;51.90;100326.31;5027858;28;20603;-62
2022/05/12 03:18:29;;;;;;;5.80;2.00;;;;;;;22.62;52.04;100334.56;5021246;28;20201;-62
2022/05/12 03:20:54;;;;;;;4.73;1.90;;;;;;;22.62;51.53;100334.56;4993232;28;20174;-62
2022/05/12 03:23:22;;;;;;;3.10;1.97;;;;;;;22.62;51.77;100334.56;5011229;28;20165;-62
2022/05/12 03:25:51;;;;;;;4.10;2.27;;;;;;;22.62;51.83;100331.69;5011135;28;20173;-62
2022/05/12 03:28:17;;;;;;;3.33;1.87;;;;;;;22.62;51.58;100333.75;5030169;28;20423;-62
2022/05/12 03:30:43;;;;;;;6.10;1.90;;;;;;;22.62;51.88;100331.69;5012706;28;20552;-62
2022/05/12 03:33:12;;;;;;;2.60;1.80;;;;;;;22.62;51.88;100337.44;5030239;28;20180;-62
2022/05/12 03:35:37;;;;;;;3.20;2.10;;;;;;;22.63;52.46;100347.72;5030734;28;20426;-62
2022/05/12 03:38:04;;;;;;;2.90;1.87;;;;;;;22.64;52.33;100348.53;5030315;28;20423;-62
2022/05/12 03:40:30;;;;;;;3.27;1.97;;;;;;;22.64;52.39;100355.13;5030519;28;20547;-62
2022/05/12 03:42:58;;;;;;;3.03;1.80;;;;;;;22.63;52.59;100356.34;5030941;28;20458;-62
2022/05/12 03:45:27;;;;;;;3.77;2.30;;;;;;;22.63;52.52;100353.47;5030765;28;20490;-62
2022/05/12 03:47:55;;;;;;;3.03;1.80;;;;;;;22.63;52.33;100358.41;5029976;28;20411;-62
2022/05/12 03:50:21;;;;;;;2.40;1.70;;;;;;;22.64;52.17;100362.94;5030402;28;20450;-62
2022/05/12 03:52:49;;;;;;;3.30;2.30;;;;;;;22.63;52.70;100372.81;5030065;28;20419;-62
2022/05/12 03:55:16;;;;;;;2.97;2.00;;;;;;;22.63;52.34;100369.94;5032068;28;20450;-62
2022/05/12 03:57:42;;;;;;;4.10;2.20;;;;;;;22.62;52.06;100385.56;5033698;28;20514;-62
2022/05/12 04:00:10;;;;;;;2.90;2.20;;;;;;;22.61;52.00;100384.72;5033655;28;20461;-62
2022/05/12 04:02:35;;;;;;;2.87;2.00;;;;;;;22.60;52.44;100385.97;5033991;28;20225;-62
2022/05/12 04:05:01;;;;;;;2.87;1.77;;;;;;;22.59;52.27;100381.44;5033902;28;20412;-62
2022/05/12 04:07:26;;;;;;;5.13;1.70;;;;;;;22.61;52.75;100402.00;5032506;28;20176;-62
2022/05/12 04:09:52;;;;;;;4.50;2.10;;;;;;;22.61;52.69;100407.75;5032188;28;20175;-62
2022/05/12 04:12:17;;;;;;;3.00;2.10;;;;;;;22.61;52.50;100410.63;5032330;28;20671;-62
2022/05/12 04:14:43;;;;;;;4.20;2.00;;;;;;;22.62;52.48;100405.69;5032060;28;20278;-62
2022/05/12 04:17:13;;;;;;;5.43;2.03;;;;;;;22.61;52.84;100407.75;5031936;28;20952;-62
2022/05/12 04:19:44;;;;;;;6.27;2.10;;;;;;;22.61;52.69;100419.25;5031623;28;20192;-62
2022/05/12 04:22:10;;;;;;;3.87;2.00;;;;;;;22.61;52.25;100415.53;5033714;28;20430;-62
2022/05/12 04:24:35;;;;;;;5.23;2.10;;;;;;;22.60;52.46;100419.66;5033641;28;20411;-62
2022/05/12 04:27:01;;;;;;;8.07;2.30;;;;;;;22.58;52.16;100420.06;5033406;28;20188;-62
2022/05/12 04:29:26;;;;;;;3.43;1.97;;;;;;;22.59;52.53;100423.75;5011813;28;20216;-62
2022/05/12 04:31:52;;;;;;;3.53;1.87;;;;;;;22.59;52.32;100423.75;5013789;28;20177;-62
2022/05/12 04:37:02;;;;;;;4.30;2.20;;;;;;;22.58;52.80;100422.13;5013558;28;20232;-62
2022/05/12 04:39:30;;;;;;;2.70;1.83;;;;;;;22.58;52.33;100430.75;5013405;28;20495;-62
2022/05/12 04:41:55;;;;;;;3.63;1.70;;;;;;;22.56;52.52;100434.03;5011987;28;20161;-62
2022/05/12 04:44:21;;;;;;;4.03;2.20;;;;;;;22.56;52.52;100442.66;5011431;28;20431;-62
2022/05/12 04:46:47;;;;;;;4.40;2.33;;;;;;;22.57;52.67;100449.25;5011558;28;20169;-62
2022/05/12 04:49:16;;;;;;;3.83;2.37;;;;;;;22.56;52.77;100445.56;5010909;28;20189;-62
2022/05/12 04:51:41;;;;;;;4.53;1.93;;;;;;;22.56;52.83;100450.47;5011631;28;20553;-62
2022/05/12 04:54:09;;;;;;;3.07;2.00;;;;;;;22.55;52.80;100452.53;5010561;28;20424;-62
2022/05/12 04:56:38;;;;;;;4.30;1.80;;;;;;;22.56;52.85;100459.09;5009460;28;20181;-62
2022/05/12 04:59:04;;;;;;;4.13;1.80;;;;;;;22.55;52.48;100464.06;5011700;28;20467;-62
2022/05/12 05:01:29;;;;;;;2.70;1.83;;;;;;;22.55;52.88;100461.16;5011863;28;20473;-62
2022/05/12 05:03:56;;;;;;;4.47;2.13;;;;;;;22.53;52.63;100457.84;5011505;28;20181;-62
2022/05/12 05:06:22;;;;;;;8.13;2.00;;;;;;;22.51;52.71;100466.06;5011447;28;20173;-62
2022/05/12 05:08:47;;;;;;;4.80;2.10;;;;;;;22.50;52.90;100463.59;4992328;28;21203;-62
2022/05/12 05:11:13;;;;;;;3.40;2.27;;;;;;;22.49;52.86;100459.91;5007592;28;20208;-62
2022/05/12 05:13:38;;;;;;;3.60;1.93;;;;;;;22.48;53.21;100475.50;5012879;28;20207;-62
2022/05/12 05:16:04;;;;;;;3.23;1.70;;;;;;;22.47;53.42;100471.00;5012932;28;20264;-62
2022/05/12 05:18:29;;;;;;;3.70;1.73;;;;;;;22.47;53.25;100473.88;5012202;28;20200;-62
2022/05/12 05:20:55;;;;;;;3.57;1.90;;;;;;;22.47;53.34;100475.94;5012659;28;20177;-62
2022/05/12 05:23:23;;;;;;;4.20;1.80;;;;;;;22.46;53.37;100468.50;5012603;28;20644;-62
2022/05/12 05:25:49;;;;;;;4.40;2.00;;;;;;;22.47;53.41;100481.69;5012019;28;20185;-62
2022/05/12 05:28:15;;;;;;;11.40;2.27;;;;;;;22.47;53.24;100476.75;5010269;28;20440;-62
2022/05/12 05:30:41;;;;;;;3.47;1.83;;;;;;;22.47;53.62;100482.50;5024783;28;20463;-62
2022/05/12 05:33:07;;;;;;;5.40;2.00;;;;;;;22.48;53.67;100475.50;5030379;28;20272;-62
2022/05/12 05:35:34;;;;;;;4.60;2.00;;;;;;;22.47;53.12;100484.56;5012563;28;20514;-62
2022/05/12 05:37:59;;;;;;;6.50;2.13;;;;;;;22.48;53.22;100497.72;5030305;28;20899;-62
2022/05/12 05:40:28;;;;;;;3.17;2.10;;;;;;;22.50;53.58;100506.75;5030287;28;20494;-62
2022/05/12 05:42:54;;;;;;;4.63;1.93;;;;;;;22.50;53.33;100507.59;5013022;28;20176;-62
2022/05/12 05:45:20;;;;;;;3.40;1.90;;;;;;;22.52;53.70;100515.84;5031881;28;20485;-62
2022/05/12 05:47:48;;;;;;;3.50;1.80;;;;;;;22.50;53.58;100524.88;5014108;28;20177;-62
2022/05/12 05:50:15;;;;;;;3.17;1.23;;;;;;;22.50;53.33;100519.09;5031501;28;20180;-62
2022/05/12 05:55:24;;;;;;;7.20;1.93;;;;;;;22.50;53.51;100539.25;5031236;28;20795;-62
2022/05/12 05:57:50;;;;;;;5.77;2.00;;;;;;;22.50;53.92;100541.28;5031322;28;20427;-62
2022/05/12 06:00:17;;;;;;;4.27;1.50;;;;;;;22.49;53.51;100546.25;5031255;28;20207;-62
2022/05/12 06:02:43;;;;;;;2.73;1.50;;;;;;;22.50;53.59;100549.94;5030280;28;20302;-62
2022/05/12 06:05:08;;;;;;;4.10;1.87;;;;;;;22.50;53.81;100547.88;5031526;28;20911;-62
2022/05/12 06:07:35;;;;;;;2.70;1.50;;;;;;;22.51;54.19;100549.53;5031608;28;20180;-62
2022/05/12 06:10:01;;;;;;;4.57;1.80;;;;;;;22.52;53.95;100562.69;5031739;28;20415;-62
2022/05/12 06:12:26;;;;;;;6.00;1.80;;;;;;;22.53;54.22;100564.31;5031499;28;20427;-62
2022/05/12 06:14:52;;;;;;;7.50;1.90;;;;;;;22.53;53.70;100560.66;5013460;28;20796;-62
2022/05/12 06:17:17;;;;;;;4.30;1.73;;;;;;;22.53;54.04;100572.16;5030339;28;20192;-62
2022/05/12 06:19:43;;;;;;;5.17;2.33;;;;;;;22.52;54.27;100568.44;5031205;28;20212;-62
2022/05/12 06:22:09;;;;;;;4.83;2.10;;;;;;;22.52;54.07;100571.31;5031291;28;20187;-62
2022/05/12 06:24:34;;;;;;;3.37;1.53;;;;;;;22.51;53.87;100569.66;5031084;28;20267;-62
2022/05/12 06:27:00;;;;;;;4.60;2.17;;;;;;;22.53;54.04;100563.53;5029795;28;20675;-62
2022/05/12 06:29:25;;;;;;;3.00;1.80;;;;;;;22.52;54.48;100568.44;5030882;28;20776;-62
2022/05/12 06:31:51;;;;;;;4.87;1.60;;;;;;;22.51;54.41;100578.31;5047969;28;20176;-62
2022/05/12 06:34:16;;;;;;;4.77;1.87;;;;;;;22.52;54.54;100579.94;5041106;28;20181;-62
2022/05/12 06:36:43;;;;;;;5.73;1.83;;;;;;;22.52;54.17;100579.16;5038554;28;20172;-62
2022/05/12 06:39:09;;;;;;;4.23;1.60;;;;;;;22.52;54.54;100582.81;5013254;28;20681;-62
2022/05/12 06:41:35;;;;;;;4.20;1.60;;;;;;;22.51;54.55;100589.81;5031197;28;20454;-62
2022/05/12 06:44:01;;;;;;;3.10;2.00;;;;;;;22.50;54.53;100585.28;5013159;28;20608;-62
2022/05/12 06:46:26;;;;;;;4.10;1.80;;;;;;;22.46;54.43;100590.19;5027390;28;20682;-64
2022/05/12 06:48:52;;;;;;;3.83;1.90;;;;;;;22.58;55.08;100595.59;5028132;28;20659;-64
2022/05/12 06:51:18;;;;;;;5.50;2.53;;;;;;;22.77;56.18;100603.94;5027863;28;20218;-62
2022/05/12 06:53:44;;;;;;;7.43;3.10;;;;;;;22.97;57.27;100596.66;5028027;28;20275;-61
2022/05/12 06:56:10;;;;;;;11.70;4.23;;;;;;;22.91;55.53;100604.03;5028163;28;21245;-64
2022/05/12 06:58:35;;;;;;;7.60;2.00;;;;;;;22.94;56.83;100597.47;5028507;28;20200;-64
2022/05/12 07:01:01;;;;;;;6.03;2.87;;;;;;;22.95;56.92;100598.28;5028843;28;20180;-64
2022/05/12 07:03:27;;;;;;;6.53;2.20;;;;;;;22.89;57.72;100600.75;5029166;28;20588;-64
2022/05/12 07:05:53;;;;;;;9.03;2.17;;;;;;;22.90;57.99;100602.41;5009588;28;20230;-63
2022/05/12 07:08:18;;;;;;;10.43;2.50;;;;;;;22.99;57.98;100605.72;5027163;28;20176;-64
2022/05/12 07:10:44;;;;;;;4.60;1.70;;;;;;;22.97;56.51;100602.41;5026533;28;20659;-64
2022/05/12 07:13:09;;;;;;;5.90;1.80;;;;;;;22.86;56.64;100607.31;5027020;28;20617;-64
2022/05/12 07:15:35;;;;;;;3.03;2.00;;;;;;;22.76;55.83;100613.81;5026244;28;20899;-63
2022/05/12 07:18:01;;;;;;;8.00;2.00;;;;;;;22.72;56.03;100612.97;5027204;28;20636;-63
2022/05/12 07:28:39;;;;;;;7.93;2.03;;;;;;;22.75;55.47;100597.78;5012712;28;20430;-63
2022/05/12 07:31:06;;;;;;;2.77;1.53;;;;;;;22.76;55.38;100605.19;5031459;28;20562;-63
2022/05/12 07:33:37;;;;;;;9.40;1.53;;;;;;;22.73;55.33;100603.09;5032584;28;20561;-63
2022/05/12 07:36:05;;;;;;;5.23;1.80;;;;;;;22.72;55.57;100606.41;5014942;28;20427;-63
2022/05/12 07:38:30;;;;;;;5.70;1.80;;;;;;;22.70;55.65;100611.72;5033034;28;20869;-63
2022/05/12 07:40:56;;;;;;;2.90;1.50;;;;;;;22.69;55.23;100612.97;5030652;28;20419;-63
2022/05/12 07:43:21;;;;;;;5.20;1.80;;;;;;;22.68;55.30;100615.00;5030884;28;20203;-63
2022/05/12 07:45:47;;;;;;;6.33;1.77;;;;;;;22.63;55.73;100617.44;5145883;22;20245;-63
2022/05/12 07:48:13;;;;;;;3.97;1.80;;;;;;;22.63;54.90;100615.38;5014065;28;20193;-63
2022/05/12 07:50:39;;;;;;;8.07;1.87;;;;;;;22.62;55.22;100625.25;5012108;28;20439;-63
2022/05/12 07:53:05;;;;;;;4.70;1.80;;;;;;;22.61;55.08;100617.84;5014346;28;20235;-63
2022/05/12 07:55:32;;;;;;;4.23;1.80;;;;;;;22.62;55.14;100619.47;5014373;28;20439;-63
2022/05/12 07:57:58;;;;;;;8.93;1.70;;;;;;;22.61;55.20;100626.47;5013914;28;20868;-63
2022/05/12 08:00:24;;;;;;;2.70;1.43;;;;;;;22.59;55.15;100631.81;5014235;28;20463;-63
2022/05/12 08:02:50;;;;;;;4.03;1.80;;;;;;;22.67;55.38;100633.50;5012872;28;21210;-63
2022/05/12 08:05:15;;;;;;;6.90;2.53;;;;;;;22.67;56.00;100639.25;5013443;28;20475;-63
2022/05/12 08:07:42;;;;;;;4.80;2.50;;;;;;;22.73;56.44;100631.88;4996385;28;20180;-63
2022/05/12 08:10:08;;;;;;;5.13;2.43;;;;;;;22.69;55.81;100636.81;5013568;28;20636;-63
2022/05/12 08:12:35;;;;;;;10.07;2.60;;;;;;;22.64;55.50;100633.47;5013424;28;20509;-63
2022/05/12 08:15:00;;;;;;;5.70;3.13;;;;;;;22.56;55.54;100638.38;5013677;28;20224;-61
2022/05/12 08:17:26;;;;;;;8.37;3.60;;;;;;;22.60;55.99;100644.97;4996657;28;20443;-61
2022/05/12 08:19:51;;;;;;;7.67;3.73;;;;;;;22.65;55.52;100643.75;5013391;28;20208;-61
2022/05/12 08:22:16;;;;;;;11.90;3.60;;;;;;;22.68;55.53;100643.78;5013687;28;20188;-61
2022/05/12 08:24:42;;;;;;;7.00;4.00;;;;;;;22.72;55.64;100641.75;5013896;28;20253;-61
2022/05/12 08:27:07;;;;;;;7.07;4.30;;;;;;;22.73;56.25;100631.88;5013370;28;20239;-61
2022/05/12 08:29:33;;;;;;;23.57;6.70;;;;;;;22.75;56.38;100625.72;5012966;28;20656;-61
2022/05/12 08:31:58;;;;;;;18.40;8.17;;;;;;;22.76;56.32;100631.09;5013267;28;20174;-61
2022/05/12 08:34:24;;;;;;;19.43;8.40;;;;;;;22.79;56.48;100623.72;5011861;28;20181;-61
2022/05/12 08:36:49;;;;;;;20.13;9.10;;;;;;;22.80;56.28;100634.84;5012232;28;20173;-61
2022/05/12 08:39:16;;;;;;;19.80;9.83;;;;;;;22.80;56.37;100634.00;5012189;28;20927;-61
2022/05/12 08:42:15;;;;;;;24.00;9.10;;;;;;;22.81;56.13;100627.84;5011571;28;20185;-61
2022/05/12 08:44:40;;;;;;;20.20;8.07;;;;;;;22.81;56.18;100624.97;4983168;28;20995;-61
2022/05/12 08:47:13;;;;;;;16.33;7.80;;;;;;;22.82;56.09;100623.72;4992097;28;20586;-61
2022/05/12 08:49:45;;;;;;;17.93;8.03;;;;;;;22.83;56.54;100627.44;4990990;28;20186;-61
2022/05/12 08:52:32;;;;;;;14.60;7.60;;;;;;;22.84;56.19;100637.72;4991391;28;20475;-61
2022/05/12 08:55:16;;;;;;;17.30;7.73;;;;;;;22.83;56.26;100630.31;4990950;28;20931;-61
2022/05/12 08:58:00;;;;;;;11.37;6.17;;;;;;;22.83;56.30;100633.19;4991522;28;20975;-63
2022/05/12 09:00:27;;;;;;;12.70;6.57;;;;;;;22.83;55.80;100631.13;4974397;28;20460;-63
2022/05/12 09:03:12;;;;;;;10.93;5.80;;;;;;;22.82;56.10;100629.47;4989866;28;20420;-63
2022/05/12 09:05:42;;;;;;;11.40;6.10;;;;;;;22.83;55.76;100633.19;4990141;28;20448;-63
2022/05/12 09:08:25;;;;;;;10.13;5.10;;;;;;;22.85;55.59;100625.81;4988366;28;20619;-63
2022/05/12 09:11:04;;;;;;;11.53;5.27;;;;;;;22.86;55.82;100626.63;4991323;28;20400;-63
2022/05/12 09:13:48;;;;;;;11.10;4.60;;;;;;;22.87;55.60;100631.97;4990155;28;20421;-63
2022/05/12 09:16:15;;;;;;;8.57;4.43;;;;;;;22.87;56.06;100631.97;4990416;28;20490;-62
2022/05/12 09:18:41;;;;;;;7.87;4.97;;;;;;;22.87;56.00;100631.97;5000354;28;21023;-63
2022/05/12 09:21:18;;;;;;;9.50;4.80;;;;;;;22.87;55.76;100619.66;4992002;28;20433;-63
2022/05/12 09:23:43;;;;;;;11.33;4.40;;;;;;;22.89;55.78;100618.03;4991720;28;20252;-63
2022/05/12 09:26:30;;;;;;;9.27;4.47;;;;;;;22.89;56.04;100618.03;4990272;28;20834;-63
2022/05/12 09:29:22;;;;;;;7.10;4.03;;;;;;;22.91;55.52;100615.56;4991394;28;20268;-63
2022/05/12 09:31:57;;;;;;;10.33;3.90;;;;;;;22.91;55.40;100615.56;4985892;28;20794;-63
2022/05/12 09:34:32;;;;;;;10.40;4.07;;;;;;;22.91;55.68;100606.91;4991144;28;20505;-62
2022/05/12 09:37:13;;;;;;;7.67;3.47;;;;;;;22.92;55.65;100611.44;4992239;28;20413;-62
2022/05/12 09:39:42;;;;;;;7.23;3.57;;;;;;;22.93;55.52;100610.22;4992585;28;20460;-62
2022/05/12 09:42:18;;;;;;;5.80;3.33;;;;;;;22.93;56.02;100601.56;4992040;28;20449;-62
2022/05/12 09:44:58;;;;;;;12.53;3.60;;;;;;;22.92;55.95;100590.47;4989579;28;20463;-62
2022/05/12 09:47:24;;;;;;;6.87;3.47;;;;;;;22.94;55.53;100602.41;4989464;28;20436;-62
2022/05/12 09:49:49;;;;;;;6.90;2.90;;;;;;;22.94;55.93;100599.53;4989552;28;20413;-62
2022/05/12 09:52:37;;;;;;;5.60;3.10;;;;;;;22.94;55.60;100593.75;4971704;28;20178;-62
2022/05/12 09:55:11;;;;;;;4.97;2.83;;;;;;;22.92;55.55;100594.16;4989700;28;20489;-62
2022/05/12 09:57:37;;;;;;;8.13;3.10;;;;;;;22.94;54.95;100596.66;4990316;28;20431;-62
2022/05/12 10:00:07;;;;;;;5.30;2.53;;;;;;;22.95;55.32;100601.16;4957226;28;20453;-62
2022/05/12 10:08:21;;;;;;;6.93;2.87;;;;;;;22.95;55.18;100581.00;4992153;28;20821;-62
2022/05/12 10:10:49;;;;;;;12.43;3.23;;;;;;;22.96;55.38;100582.66;4991669;28;20419;-62
2022/05/12 10:13:37;;;;;;;4.53;2.27;;;;;;;22.95;55.72;100595.41;4973769;28;20417;-62
2022/05/12 10:16:09;;;;;;;7.03;3.20;;;;;;;22.96;55.38;100583.50;4990687;28;20475;-62
2022/05/12 10:18:47;;;;;;;5.30;2.70;;;;;;;22.96;55.38;100586.38;4966764;28;20503;-62
2022/05/12 10:21:34;;;;;;;4.03;2.50;;;;;;;22.96;55.26;100583.50;4992061;28;20946;-62
2022/05/12 10:24:15;;;;;;;4.73;2.43;;;;;;;22.96;55.24;100583.50;4990461;28;20479;-62
2022/05/12 10:26:48;;;;;;;5.47;2.60;;;;;;;22.96;55.06;100588.41;4989070;28;20421;-63
2022/05/12 10:29:41;;;;;;;5.10;2.40;;;;;;;22.96;55.28;100583.50;4989949;28;20756;-62
2022/05/12 10:32:12;;;;;;;5.10;2.43;;;;;;;22.95;55.07;100583.88;4992012;28;20417;-62
2022/05/12 10:34:41;;;;;;;4.43;2.40;;;;;;;22.95;55.58;100576.09;4991756;28;20471;-62
2022/05/12 10:37:28;;;;;;;6.43;2.67;;;;;;;22.96;55.34;100571.97;4991837;28;20575;-62
2022/05/12 10:40:22;;;;;;;3.50;2.07;;;;;;;22.97;55.51;100573.63;4990095;28;20518;-62
2022/05/12 10:43:23;;;;;;;6.00;2.70;;;;;;;22.99;55.22;100576.94;4975634;28;20806;-62
2022/05/12 10:46:06;;;;;;;3.40;2.40;;;;;;;22.99;55.13;100582.69;4992848;28;20480;-62
2022/05/12 10:48:56;;;;;;;4.43;2.30;;;;;;;22.98;55.09;100578.16;5009786;28;20400;-62
2022/05/12 10:51:40;;;;;;;4.40;2.10;;;;;;;22.98;55.32;100562.94;4977731;28;20435;-62
2022/05/12 10:54:10;;;;;;;5.53;3.17;;;;;;;22.99;55.04;100568.28;4991393;28;21117;-62
2022/05/12 10:56:53;;;;;;;5.47;1.80;;;;;;;22.99;55.25;100559.66;4991883;28;20421;-62
2022/05/12 10:59:43;;;;;;;6.33;2.27;;;;;;;23.00;54.96;100554.69;4983189;28;20514;-62
2022/05/12 11:02:16;;;;;;;4.57;2.13;;;;;;;23.00;55.38;100561.31;5010633;28;20415;-62
2022/05/12 11:04:55;;;;;;;6.63;2.70;;;;;;;23.00;55.21;100561.31;5011063;28;20477;-62
2022/05/12 11:07:21;;;;;;;4.70;2.20;;;;;;;23.01;55.65;100557.19;4993752;28;20962;-62
2022/05/12 11:09:48;;;;;;;3.17;2.00;;;;;;;23.01;55.12;100556.34;5010614;28;20562;-62
2022/05/12 11:12:22;;;;;;;7.47;2.33;;;;;;;23.02;55.56;100549.38;4993527;28;20219;-62
2022/05/12 11:14:54;;;;;;;6.17;2.43;;;;;;;23.02;55.44;100549.38;5010738;28;20838;-62
2022/05/12 11:17:30;;;;;;;4.63;2.00;;;;;;;23.02;55.56;100543.63;5002949;28;20952;-62
2022/05/12 11:20:00;;;;;;;6.03;2.70;;;;;;;23.04;55.08;100550.63;4997500;28;20439;-62
2022/05/12 11:23:01;;;;;;;5.40;2.30;;;;;;;23.04;55.34;100547.75;5023771;28;20416;-62
2022/05/12 11:25:31;;;;;;;4.97;2.70;;;;;;;23.05;55.50;100542.78;4949924;29;20435;-62
2022/05/12 11:31:27;;;;;;;5.97;2.70;;;;;;;23.05;55.16;100549.38;4995923;28;20447;-62
2022/05/12 11:33:59;;;;;;;3.80;2.20;;;;;;;23.04;55.39;100544.88;4993067;28;20408;-62
2022/05/12 11:36:41;;;;;;;4.57;2.33;;;;;;;23.07;55.75;100549.78;5010953;28;20420;-62
2022/05/12 11:39:31;;;;;;;5.03;2.53;;;;;;;23.05;55.62;100546.50;5010870;28;20555;-62
2022/05/12 11:42:17;;;;;;;3.20;2.03;;;;;;;23.08;55.40;100545.69;5010596;28;20475;-62
2022/05/12 11:45:02;;;;;;;3.80;2.27;;;;;;;23.07;54.99;100535.41;5010429;28;20463;-62
2022/05/12 11:47:40;;;;;;;4.23;1.83;;;;;;;23.04;55.24;100530.47;4993866;28;20432;-62
2022/05/12 11:50:33;;;;;;;5.83;2.70;;;;;;;23.06;55.18;100525.13;5010291;28;20424;-62
2022/05/12 11:53:22;;;;;;;2.90;1.93;;;;;;;23.08;55.39;100522.63;5010792;28;20923;-62
2022/05/12 11:56:09;;;;;;;4.73;2.43;;;;;;;23.07;55.20;100521.00;5010849;28;20415;-62